Time;durP1;ratioP1;P1;durP2;ratioP2;P2;SDS_P1;SDS_P2;PMS_P1;PMS_P2;Temp;Humidity;BMP_temperature;BMP_pressure;BME280_temperature;BME280_humidity;BME280_pressure;Samples;Min_cycle;Max_cycle;Signal;HPM_P1;HPM_P2
2022/01/13 00:01:47;;;;;;;2.72;2.40;;;;;;;17.17;44.79;104023.06;5122772;28;20028;-44
2022/01/13 01:26:46;;;;;;;4.28;2.65;;;;;;;16.91;44.77;104000.22;5125983;28;20032;-46
2022/01/13 01:29:23;;;;;;;4.05;2.97;;;;;;;16.90;44.84;103994.91;5126390;28;20054;-48
2022/01/13 01:31:52;;;;;;;4.05;3.08;;;;;;;16.90;44.85;103998.47;5125973;28;20019;-46
2022/01/13 01:37:15;;;;;;;4.07;2.72;;;;;;;16.89;44.71;103999.44;5125596;28;20108;-46
2022/01/13 01:39:41;;;;;;;4.00;3.17;;;;;;;16.89;44.79;103993.19;5124831;28;20058;-47
2022/01/13 01:42:07;;;;;;;3.90;2.92;;;;;;;16.88;44.75;103991.47;5125906;28;20039;-47
2022/01/13 01:44:37;;;;;;;3.03;2.40;;;;;;;16.87;44.75;103995.09;5125698;28;20028;-46
2022/01/13 01:47:03;;;;;;;4.85;2.80;;;;;;;16.86;44.73;103985.28;5125758;28;20055;-44
2022/01/13 01:49:31;;;;;;;3.65;2.63;;;;;;;16.86;44.77;103993.34;5122846;28;20391;-47
2022/01/13 01:51:59;;;;;;;3.30;2.63;;;;;;;16.86;44.56;104004.94;5104812;28;20038;-45
2022/01/13 01:54:25;;;;;;;3.95;2.97;;;;;;;16.84;44.62;104001.50;5105056;28;20043;-49
2022/01/13 01:56:51;;;;;;;4.20;3.03;;;;;;;16.85;44.77;104002.34;5104932;28;20038;-46
2022/01/13 01:59:20;;;;;;;3.63;2.83;;;;;;;16.83;44.72;103999.75;5105116;28;20051;-45
2022/01/13 02:01:47;;;;;;;4.28;2.92;;;;;;;16.83;44.82;104004.28;5105086;28;20024;-46
2022/01/13 02:04:12;;;;;;;3.35;2.65;;;;;;;16.82;44.77;104002.50;5104638;28;20035;-46
2022/01/13 02:06:38;;;;;;;3.88;2.90;;;;;;;16.79;44.78;104000.00;5103131;28;20443;-43
2022/01/13 02:09:05;;;;;;;4.03;2.92;;;;;;;16.81;44.67;104006.16;5104976;28;20051;-43
2022/01/13 02:11:36;;;;;;;3.22;2.65;;;;;;;16.81;44.73;104011.53;5116377;28;20031;-44
2022/01/13 02:14:10;;;;;;;3.08;2.72;;;;;;;16.79;44.66;104011.63;5123979;28;20032;-44
2022/01/13 02:16:43;;;;;;;3.53;2.80;;;;;;;16.76;44.76;104005.53;5125277;28;20028;-45
2022/01/13 02:19:10;;;;;;;5.45;3.28;;;;;;;16.78;44.82;104006.31;5123898;28;20031;-44
2022/01/13 02:21:35;;;;;;;3.45;2.72;;;;;;;16.70;44.66;103993.25;5124389;28;20024;-45
2022/01/13 02:24:00;;;;;;;3.67;2.90;;;;;;;16.76;44.55;104002.84;5125010;28;20050;-44
2022/01/13 02:26:25;;;;;;;4.80;2.90;;;;;;;16.73;44.80;104002.03;5124746;28;20085;-45
2022/01/13 02:28:53;;;;;;;3.20;2.90;;;;;;;16.73;44.65;104001.16;5125012;28;20027;-48
2022/01/13 02:31:19;;;;;;;4.10;3.30;;;;;;;16.71;44.63;103998.53;5124733;28;20036;-46
2022/01/13 02:33:45;;;;;;;3.50;2.75;;;;;;;16.71;44.64;104005.72;5124777;28;20034;-46
2022/01/13 02:36:11;;;;;;;3.85;2.80;;;;;;;16.70;44.72;103996.81;5124011;28;20682;-44
2022/01/13 02:38:36;;;;;;;4.38;3.30;;;;;;;16.69;44.76;103996.88;5124919;28;20031;-45
2022/01/13 02:41:03;;;;;;;4.03;3.03;;;;;;;16.68;44.88;104006.75;5124743;28;20083;-46
2022/01/13 02:43:30;;;;;;;4.38;3.30;;;;;;;16.67;44.90;104001.47;5124279;28;20034;-48
2022/01/13 02:46:06;;;;;;;3.92;2.85;;;;;;;16.66;44.76;103991.69;5124608;28;20023;-47
2022/01/13 02:48:32;;;;;;;3.92;2.53;;;;;;;16.65;44.78;103988.13;5123205;28;20029;-46
2022/01/13 02:50:58;;;;;;;2.95;2.60;;;;;;;16.65;44.81;103989.91;5124680;28;20040;-45
2022/01/13 02:53:24;;;;;;;3.38;2.70;;;;;;;16.63;44.76;103995.38;5124322;28;20030;-48
2022/01/13 02:55:56;;;;;;;4.18;3.25;;;;;;;16.62;44.74;103982.91;5124456;28;20035;-45
2022/01/13 02:58:22;;;;;;;3.63;3.10;;;;;;;16.62;44.74;103982.91;5124758;28;20476;-45
2022/01/13 03:00:47;;;;;;;3.53;2.95;;;;;;;16.56;44.90;103969.75;5124432;28;20476;-46
2022/01/13 03:03:13;;;;;;;3.75;3.20;;;;;;;16.59;44.75;103976.81;5124163;28;20034;-46
2022/01/13 03:05:39;;;;;;;3.25;2.60;;;;;;;16.61;44.57;103977.59;5124223;28;20068;-44
2022/01/13 03:08:08;;;;;;;4.22;3.25;;;;;;;16.60;44.65;103970.47;5123666;28;20052;-45
2022/01/13 03:10:33;;;;;;;3.60;2.63;;;;;;;16.59;44.80;103958.00;5124328;28;20080;-47
2022/01/13 03:13:00;;;;;;;4.18;2.85;;;;;;;16.58;44.71;103969.69;5124353;28;20111;-48
2022/01/13 03:15:25;;;;;;;4.05;3.05;;;;;;;16.58;44.72;103964.34;5124237;28;20023;-47
2022/01/13 03:17:50;;;;;;;3.75;3.03;;;;;;;16.57;44.70;103959.91;5124002;28;20115;-47
2022/01/13 03:20:16;;;;;;;3.97;2.97;;;;;;;16.57;44.70;103947.34;5124001;28;20035;-48
2022/01/13 03:22:41;;;;;;;3.47;3.03;;;;;;;16.58;44.62;103958.97;5123574;28;20040;-47
2022/01/13 03:25:06;;;;;;;3.92;3.15;;;;;;;16.58;44.69;103957.13;5123914;28;20067;-44
2022/01/13 03:27:35;;;;;;;4.18;3.08;;;;;;;16.56;44.79;103958.16;5123022;28;20026;-46
2022/01/13 03:30:06;;;;;;;3.58;3.10;;;;;;;16.56;44.80;103952.78;5122872;28;20504;-44
2022/01/13 03:32:33;;;;;;;3.67;3.05;;;;;;;16.55;44.78;103946.53;5124240;28;20039;-45
2022/01/13 03:34:58;;;;;;;2.90;2.60;;;;;;;16.54;44.65;103944.81;5123373;28;20709;-47
2022/01/13 03:37:23;;;;;;;3.75;3.05;;;;;;;16.52;44.79;103952.06;5123751;28;20043;-45
2022/01/13 03:39:49;;;;;;;3.55;2.88;;;;;;;16.49;44.69;103933.44;5124137;28;20042;-50
2022/01/13 03:42:14;;;;;;;4.88;3.50;;;;;;;16.52;44.80;103951.19;5121783;28;20087;-43
2022/01/13 03:44:39;;;;;;;4.22;3.22;;;;;;;16.52;44.76;103948.50;5112162;28;20032;-45
2022/01/13 03:47:05;;;;;;;4.53;3.40;;;;;;;16.50;44.71;103951.28;5103605;28;20039;-45
2022/01/13 03:49:31;;;;;;;4.15;3.20;;;;;;;16.49;44.79;103950.44;5102172;28;20062;-47
2022/01/13 03:52:00;;;;;;;5.00;3.20;;;;;;;16.49;44.70;103942.38;5102974;28;20054;-46
2022/01/13 03:54:32;;;;;;;;;;;;;;;16.46;44.87;103947.03;5104102;28;20086;-45
2022/01/13 03:57:18;;;;;;;3.35;2.97;;;;;;;16.47;44.83;103949.63;5107355;28;19975;-47
2022/01/13 04:00:12;;;;;;;3.90;3.08;;;;;;;16.47;44.77;103946.06;5107430;28;20036;-44
2022/01/13 04:02:37;;;;;;;3.72;3.08;;;;;;;16.45;44.53;103942.59;5106014;28;20501;-43
2022/01/13 04:05:02;;;;;;;3.63;2.78;;;;;;;16.43;44.77;103953.41;5125392;28;20039;-44
2022/01/13 04:07:27;;;;;;;4.00;2.95;;;;;;;16.42;44.74;103961.56;5127363;28;20042;-44
2022/01/13 04:09:56;;;;;;;3.33;2.67;;;;;;;16.45;44.76;103961.41;5121203;28;20024;-45
2022/01/13 04:12:23;;;;;;;3.57;2.97;;;;;;;16.44;44.74;103959.69;5107186;28;20045;-45
2022/01/13 04:14:53;;;;;;;3.92;2.97;;;;;;;16.44;44.91;103965.03;5107048;28;20107;-49
2022/01/13 04:17:20;;;;;;;3.72;2.90;;;;;;;16.43;44.77;103963.28;5107145;28;20034;-45
2022/01/13 04:19:46;;;;;;;3.33;2.63;;;;;;;16.38;44.78;103959.97;5106758;28;20028;-50
2022/01/13 04:22:12;;;;;;;4.00;3.20;;;;;;;16.44;44.72;103962.38;5106307;28;20047;-48
2022/01/13 04:24:38;;;;;;;2.72;2.35;;;;;;;16.42;44.62;103975.84;5106809;28;20093;-45
2022/01/13 04:27:04;;;;;;;3.67;2.90;;;;;;;16.43;44.62;103961.47;5106958;28;20020;-44
2022/01/13 04:29:37;;;;;;;3.67;2.92;;;;;;;16.41;44.68;103967.88;5106787;28;20032;-46
2022/01/13 04:32:04;;;;;;;3.70;2.85;;;;;;;16.42;44.62;103972.28;5106825;28;20035;-48
2022/01/13 04:34:30;;;;;;;3.28;2.97;;;;;;;16.41;44.84;103970.56;5122849;28;20088;-48
2022/01/13 04:36:57;;;;;;;3.38;2.78;;;;;;;16.41;44.66;103973.25;5126546;28;20040;-47
2022/01/13 04:39:23;;;;;;;3.53;3.00;;;;;;;16.39;44.63;103967.94;5127261;27;20031;-44
2022/01/13 04:41:48;;;;;;;3.85;3.15;;;;;;;16.36;44.48;103954.69;5127245;28;20031;-44
2022/01/13 04:44:17;;;;;;;3.15;2.85;;;;;;;16.39;44.69;103961.69;5126835;28;20027;-45
2022/01/13 04:46:43;;;;;;;3.80;3.10;;;;;;;16.40;44.60;103963.47;5126722;28;20484;-48
2022/01/13 04:49:09;;;;;;;3.88;3.30;;;;;;;16.39;44.63;103962.56;5125486;28;20027;-49
2022/01/13 04:51:35;;;;;;;3.45;2.75;;;;;;;16.39;44.62;103961.69;5126219;28;20032;-45
2022/01/13 04:54:00;;;;;;;3.05;2.40;;;;;;;16.41;44.56;103965.19;5126615;28;20020;-46
2022/01/13 04:56:29;;;;;;;3.22;2.88;;;;;;;16.40;44.55;103953.59;5126545;28;20101;-43
2022/01/13 04:58:55;;;;;;;2.78;2.47;;;;;;;16.40;44.55;103947.34;5127030;28;20023;-47
2022/01/13 05:01:20;;;;;;;3.60;2.90;;;;;;;16.40;44.53;103944.66;5126533;28;20579;-45
2022/01/13 05:03:45;;;;;;;2.50;2.15;;;;;;;16.39;44.58;103943.75;5126192;28;20020;-43
2022/01/13 05:06:12;;;;;;;3.85;2.97;;;;;;;16.38;44.53;103947.41;5125483;28;20039;-43
2022/01/13 05:08:38;;;;;;;3.92;3.00;;;;;;;16.39;44.47;103948.28;5126881;28;20084;-45
2022/01/13 05:11:03;;;;;;;4.68;3.55;;;;;;;16.39;44.56;103956.31;5126454;28;20163;-44
2022/01/13 05:13:28;;;;;;;3.15;2.60;;;;;;;16.39;44.57;103949.13;5126557;28;20087;-48
2022/01/13 05:15:55;;;;;;;3.17;2.80;;;;;;;16.39;44.47;103943.75;5126344;28;20059;-46
2022/01/13 05:20:49;;;;;;;3.28;2.78;;;;;;;16.39;44.55;103940.22;5126442;28;20491;-48
2022/01/13 05:23:15;;;;;;;3.00;2.63;;;;;;;16.36;44.60;103932.34;5125482;28;20130;-48
2022/01/13 05:25:42;;;;;;;3.45;2.78;;;;;;;16.38;44.43;103947.41;5125930;28;20024;-49
2022/01/13 05:28:08;;;;;;;3.20;2.85;;;;;;;16.34;44.40;103940.44;5126342;28;20054;-49
2022/01/13 05:30:33;;;;;;;3.65;2.90;;;;;;;16.38;44.41;103936.66;5114319;28;20039;-44
2022/01/13 05:32:58;;;;;;;2.65;2.42;;;;;;;16.38;44.38;103938.47;5112126;28;20028;-48
2022/01/13 05:35:24;;;;;;;4.07;3.10;;;;;;;16.37;44.59;103934.94;5125004;28;20039;-48
2022/01/13 05:37:49;;;;;;;3.60;2.78;;;;;;;16.37;44.51;103932.25;5121929;28;20023;-45
2022/01/13 05:40:15;;;;;;;2.53;2.33;;;;;;;16.37;44.59;103932.25;5105262;28;20020;-47
2022/01/13 05:42:40;;;;;;;3.38;2.80;;;;;;;16.39;44.54;103934.84;5105546;28;20016;-50
2022/01/13 05:45:14;;;;;;;3.38;2.45;;;;;;;16.39;44.58;103935.72;5105186;28;21095;-46
2022/01/13 05:47:40;;;;;;;3.45;2.58;;;;;;;16.39;44.55;103930.34;5123027;28;20047;-46
2022/01/13 05:50:07;;;;;;;3.75;3.30;;;;;;;16.37;44.64;103931.38;5124590;28;20058;-48
2022/01/13 05:52:32;;;;;;;3.65;2.42;;;;;;;16.40;44.64;103936.59;5124416;28;20057;-48
2022/01/13 05:54:57;;;;;;;3.53;2.60;;;;;;;16.40;44.59;103945.53;5124753;28;20428;-44
2022/01/13 05:57:22;;;;;;;2.78;2.30;;;;;;;16.40;44.51;103928.56;5125010;28;20054;-48
2022/01/13 05:59:47;;;;;;;2.70;2.38;;;;;;;16.41;44.69;103935.66;5113149;28;20028;-45
2022/01/13 06:02:13;;;;;;;3.03;2.50;;;;;;;16.42;44.74;103934.69;5115685;28;20076;-49
2022/01/13 06:04:38;;;;;;;3.30;2.65;;;;;;;16.42;44.63;103932.00;5103965;28;20028;-49
2022/01/13 06:07:03;;;;;;;3.17;2.47;;;;;;;16.42;44.62;103935.56;5109265;28;20027;-47
2022/01/13 06:09:28;;;;;;;2.72;2.38;;;;;;;16.43;44.48;103939.97;5118485;27;20058;-45
2022/01/13 06:12:02;;;;;;;3.55;2.92;;;;;;;16.42;45.06;103934.69;5104507;28;20028;-44
2022/01/13 06:14:27;;;;;;;3.13;2.50;;;;;;;16.43;44.84;103939.97;5116051;28;20386;-44
2022/01/13 06:16:53;;;;;;;3.10;2.72;;;;;;;16.45;44.86;103939.91;5103819;28;20032;-44
2022/01/13 06:19:18;;;;;;;3.55;2.60;;;;;;;16.45;44.85;103934.53;5112913;28;20029;-46
2022/01/13 06:21:44;;;;;;;3.15;2.70;;;;;;;16.46;44.82;103938.97;5114120;28;20098;-45
2022/01/13 06:24:09;;;;;;;3.30;3.00;;;;;;;16.46;44.63;103942.50;5116382;28;20028;-44
2022/01/13 06:26:34;;;;;;;2.92;2.60;;;;;;;16.47;44.95;103941.56;5111966;28;20032;-45
2022/01/13 06:29:00;;;;;;;3.10;2.20;;;;;;;16.42;44.95;103937.38;5121588;28;20578;-42
2022/01/13 06:31:25;;;;;;;3.03;2.60;;;;;;;16.47;44.73;103944.25;5124424;27;20028;-46
2022/01/13 06:33:50;;;;;;;3.00;2.58;;;;;;;16.49;45.01;103944.19;5106595;28;20439;-44
2022/01/13 06:36:16;;;;;;;1.98;1.77;;;;;;;16.48;44.87;103951.38;5117001;28;20114;-47
2022/01/13 06:38:42;;;;;;;2.60;2.22;;;;;;;16.50;44.95;103943.22;5120084;28;20065;-49
2022/01/13 06:41:07;;;;;;;3.00;2.42;;;;;;;16.48;45.28;103943.31;5115834;28;20032;-48
2022/01/13 06:43:33;;;;;;;3.03;2.30;;;;;;;16.50;45.04;103952.16;5118588;28;20084;-46
2022/01/13 06:45:59;;;;;;;3.30;2.80;;;;;;;16.52;44.92;103951.19;5120928;28;20103;-48
2022/01/13 06:48:24;;;;;;;2.95;2.47;;;;;;;16.52;45.07;103956.56;5123640;28;20386;-47
2022/01/13 06:50:49;;;;;;;2.83;2.30;;;;;;;16.53;44.99;103952.97;5115668;28;20027;-49
2022/01/13 06:53:14;;;;;;;2.33;1.90;;;;;;;16.53;44.99;103952.97;5123412;28;20455;-48
2022/01/13 06:55:40;;;;;;;2.92;2.35;;;;;;;16.54;45.08;103958.25;5119301;28;20424;-49
2022/01/13 06:58:05;;;;;;;2.78;2.30;;;;;;;16.53;45.12;103958.34;5114395;28;20038;-47
2022/01/13 07:00:32;;;;;;;2.70;2.28;;;;;;;16.54;45.07;103957.38;5120947;28;20076;-46
2022/01/13 07:02:59;;;;;;;2.72;2.13;;;;;;;16.52;44.69;103946.69;5124008;28;20019;-47
2022/01/13 07:05:24;;;;;;;2.45;2.03;;;;;;;16.55;45.09;103946.53;5109442;28;20532;-45
2022/01/13 07:07:50;;;;;;;2.40;2.20;;;;;;;16.55;45.24;103951.91;5123254;28;20499;-43
2022/01/13 07:10:15;;;;;;;2.40;2.20;;;;;;;16.56;45.20;103944.72;5123755;28;20047;-46
2022/01/13 07:12:41;;;;;;;2.50;2.20;;;;;;;16.55;45.01;103941.16;5115279;28;20043;-44
2022/01/13 07:15:07;;;;;;;2.83;2.47;;;;;;;16.55;45.25;103943.00;5113658;28;20695;-44
2022/01/13 07:17:33;;;;;;;3.30;2.78;;;;;;;16.56;45.37;103942.91;5113819;28;20470;-44
2022/01/13 07:19:58;;;;;;;3.03;2.60;;;;;;;16.53;45.30;103937.72;5115418;28;20107;-43
2022/01/13 07:22:23;;;;;;;3.38;2.33;;;;;;;16.58;45.30;103932.97;5120039;28;20051;-45
2022/01/13 07:24:49;;;;;;;3.50;2.85;;;;;;;16.55;45.29;103930.44;5111751;28;20085;-50
2022/01/13 07:27:14;;;;;;;2.85;2.55;;;;;;;16.59;45.49;103937.38;5122241;28;20035;-45
2022/01/13 07:29:42;;;;;;;5.07;3.17;;;;;;;16.64;45.30;103939.81;5117088;28;20022;-47
2022/01/13 07:32:11;;;;;;;4.53;3.40;;;;;;;16.66;45.35;103943.31;5113278;28;20088;-43
2022/01/13 07:34:37;;;;;;;4.25;3.25;;;;;;;16.71;45.29;103938.56;5106845;28;20023;-45
2022/01/13 07:37:02;;;;;;;5.97;3.67;;;;;;;16.73;45.10;103942.06;5127720;28;20020;-42
2022/01/13 07:39:28;;;;;;;4.53;3.72;;;;;;;16.78;45.12;103948.09;5128371;28;20023;-44
2022/01/13 07:41:53;;;;;;;4.80;3.55;;;;;;;16.81;45.05;103949.72;5128285;28;20106;-45
2022/01/13 07:44:18;;;;;;;4.82;3.17;;;;;;;16.83;45.12;103950.53;5128044;28;20019;-44
2022/01/13 07:46:44;;;;;;;4.32;3.75;;;;;;;16.84;44.95;103947.75;5128028;28;20019;-42
2022/01/13 07:49:09;;;;;;;4.30;3.58;;;;;;;16.85;45.00;103959.38;5127774;28;20110;-42
2022/01/13 07:51:34;;;;;;;3.92;3.45;;;;;;;16.69;45.14;103935.06;5127341;28;20487;-47
2022/01/13 07:54:01;;;;;;;4.28;3.75;;;;;;;16.87;44.69;103965.53;5127822;28;20051;-56
2022/01/13 07:56:28;;;;;;;5.03;3.72;;;;;;;16.89;45.13;103971.69;5127272;28;20024;-45
2022/01/13 07:58:53;;;;;;;5.68;3.72;;;;;;;16.88;44.88;103965.44;5127563;28;20053;-44
2022/01/13 08:01:18;;;;;;;5.93;3.92;;;;;;;16.89;45.11;103966.31;5127466;28;20023;-47
2022/01/13 08:03:43;;;;;;;5.72;4.25;;;;;;;16.90;45.07;103965.34;5127641;28;20114;-48
2022/01/13 08:06:09;;;;;;;4.55;3.45;;;;;;;16.91;45.18;103970.66;5127051;28;20031;-45
2022/01/13 08:08:35;;;;;;;4.95;4.15;;;;;;;16.92;45.24;103969.72;5127612;28;20087;-49
2022/01/13 08:11:04;;;;;;;7.00;3.85;;;;;;;16.91;45.44;103977.88;5127838;28;20098;-46
2022/01/13 08:13:30;;;;;;;5.97;3.70;;;;;;;16.94;45.59;103970.47;5127652;28;20031;-44
2022/01/13 08:15:55;;;;;;;6.40;3.92;;;;;;;16.95;45.89;103974.94;5127400;28;20031;-45
2022/01/13 08:21:05;;;;;;;5.65;3.67;;;;;;;16.96;46.04;103970.44;5126928;28;20111;-44
2022/01/13 08:23:30;;;;;;;5.50;4.00;;;;;;;16.96;46.09;103973.97;5127119;28;20036;-43
2022/01/13 08:25:57;;;;;;;6.32;4.00;;;;;;;16.92;46.31;103964.34;5126872;28;20023;-45
2022/01/13 08:28:22;;;;;;;5.47;3.72;;;;;;;16.98;46.46;103971.19;5127157;28;20020;-41
2022/01/13 08:30:48;;;;;;;4.32;3.65;;;;;;;16.96;46.41;103965.06;5127325;28;20047;-46
2022/01/13 08:33:13;;;;;;;5.03;3.83;;;;;;;16.99;46.46;103973.81;5126919;28;20031;-44
2022/01/13 08:35:43;;;;;;;5.05;4.20;;;;;;;17.01;46.34;103986.31;5126945;28;20031;-42
2022/01/13 08:38:16;;;;;;;5.20;3.78;;;;;;;17.03;46.48;103979.00;5126833;28;20027;-43
2022/01/13 08:40:41;;;;;;;5.03;3.60;;;;;;;17.01;46.48;103980.94;5126374;28;20523;-43
2022/01/13 08:43:07;;;;;;;4.55;3.67;;;;;;;17.05;46.72;103994.13;5126817;28;20020;-45
2022/01/13 08:45:32;;;;;;;6.13;3.95;;;;;;;17.05;46.66;103990.56;5126557;28;20027;-44
2022/01/13 08:47:57;;;;;;;4.90;3.50;;;;;;;17.05;46.64;103986.06;5126802;28;20110;-42
2022/01/13 08:50:22;;;;;;;12.90;4.28;;;;;;;17.06;46.43;103990.47;5126329;28;20095;-45
2022/01/13 08:52:48;;;;;;;5.75;4.10;;;;;;;17.09;46.54;103995.69;5126039;28;20095;-41
2022/01/13 08:55:13;;;;;;;4.72;3.72;;;;;;;17.10;46.40;103989.38;5126338;28;20031;-42
2022/01/13 08:57:38;;;;;;;4.28;3.53;;;;;;;17.10;46.50;103986.69;5126697;28;20042;-43
2022/01/13 09:00:06;;;;;;;4.03;3.47;;;;;;;17.11;46.45;103988.41;5126432;28;20043;-44
2022/01/13 09:02:33;;;;;;;4.88;3.53;;;;;;;17.12;46.37;103989.28;5126809;28;20560;-46
2022/01/13 09:05:02;;;;;;;28.52;13.43;;;;;;;17.15;46.53;103984.59;5126312;28;20087;-43
2022/01/13 09:07:27;;;;;;;82.35;36.53;;;;;;;17.17;46.34;103989.91;5126422;28;20096;-43
2022/01/13 09:09:53;;;;;;;155.10;65.28;;;;;;;17.20;46.23;103987.94;5126357;28;20138;-45
2022/01/13 09:12:18;;;;;;;167.18;69.50;;;;;;;17.21;46.21;103986.13;5126279;28;20027;-45
2022/01/13 09:14:44;;;;;;;148.85;61.80;;;;;;;17.22;46.29;103985.16;5126348;28;20519;-45
2022/01/13 09:17:18;;;;;;;123.70;54.88;;;;;;;17.21;45.93;103986.97;5126337;28;20476;-48
2022/01/13 09:19:44;;;;;;;118.30;47.58;;;;;;;17.23;45.97;103995.81;5122192;28;20045;-50
2022/01/13 09:22:09;;;;;;;97.53;40.65;;;;;;;17.23;45.74;103987.75;5125470;28;20051;-47
2022/01/13 09:24:34;;;;;;;90.10;36.42;;;;;;;17.26;45.52;103989.41;5111111;28;20020;-47
2022/01/13 09:27:00;;;;;;;67.78;30.33;;;;;;;17.24;45.48;103978.72;5116103;28;20087;-48
2022/01/13 09:29:25;;;;;;;63.83;26.05;;;;;;;17.16;45.32;103961.28;5116465;28;20056;-45
2022/01/13 09:31:50;;;;;;;57.55;25.02;;;;;;;17.30;45.08;103984.75;5120359;28;20038;-47
2022/01/13 09:34:16;;;;;;;48.30;21.20;;;;;;;17.31;44.91;103989.16;5113603;28;20083;-46
2022/01/13 09:36:41;;;;;;;45.53;20.30;;;;;;;17.31;44.90;103998.09;5109135;28;20035;-46
2022/01/13 09:39:08;;;;;;;43.95;18.45;;;;;;;17.32;44.77;104004.34;5120053;28;20038;-41
2022/01/13 09:41:34;;;;;;;42.60;19.30;;;;;;;17.33;44.76;103998.00;5114113;27;20408;-45
2022/01/13 09:44:02;;;;;;;30.63;16.10;;;;;;;17.33;44.77;103981.88;5105411;28;20024;-43
2022/01/13 09:46:27;;;;;;;32.47;16.23;;;;;;;17.33;44.89;103989.94;5105000;28;20063;-48
2022/01/13 09:48:54;;;;;;;38.13;16.00;;;;;;;17.33;45.04;103996.22;5105176;28;20272;-46
2022/01/13 09:51:25;;;;;;;31.67;14.75;;;;;;;17.33;45.12;104004.28;5104490;28;20035;-45
2022/01/13 09:53:51;;;;;;;30.00;14.63;;;;;;;17.34;45.05;104003.31;5104118;28;20492;-45
2022/01/13 09:56:16;;;;;;;25.75;14.15;;;;;;;17.35;44.99;103994.28;5110648;28;20475;-42
2022/01/13 09:58:44;;;;;;;32.55;13.82;;;;;;;17.36;45.05;104000.53;5125563;28;20026;-42
2022/01/13 10:01:12;;;;;;;27.08;13.50;;;;;;;17.36;45.12;104001.41;5121601;28;20023;-44
2022/01/13 10:03:38;;;;;;;27.17;11.80;;;;;;;17.38;44.70;104002.22;5124844;28;20058;-45
2022/01/13 10:06:18;;;;;;;24.08;11.85;;;;;;;17.40;44.71;104013.72;5111551;28;20036;-43
2022/01/13 10:08:49;;;;;;;24.70;12.07;;;;;;;17.39;44.44;103998.56;5105268;28;20049;-46
2022/01/13 10:11:24;;;;;;;26.80;12.23;;;;;;;17.42;44.64;103997.53;5121319;28;20095;-48
2022/01/13 10:14:10;;;;;;;22.20;11.38;;;;;;;17.42;44.64;103997.53;5125038;28;20024;-45
2022/01/13 10:16:42;;;;;;;21.88;11.02;;;;;;;17.42;44.65;103995.72;5124875;28;20023;-45
2022/01/13 10:19:24;;;;;;;20.90;10.55;;;;;;;17.43;44.64;103999.25;5124308;28;20053;-48
2022/01/13 10:22:06;;;;;;;16.65;9.75;;;;;;;17.44;44.44;104001.00;5124053;28;20031;-43
2022/01/13 10:24:39;;;;;;;22.10;10.57;;;;;;;17.44;44.55;103999.16;5124585;28;20030;-43
2022/01/13 10:27:08;;;;;;;20.02;10.73;;;;;;;17.45;44.46;103992.81;5120211;28;20031;-44
2022/01/13 10:29:47;;;;;;;22.17;11.82;;;;;;;17.46;44.47;103991.91;5119654;28;20030;-45
2022/01/13 10:32:23;;;;;;;20.17;11.05;;;;;;;17.47;44.33;103996.31;5122833;28;20031;-45
2022/01/13 10:40:01;;;;;;;18.70;9.65;;;;;;;17.48;44.31;103994.50;5154614;22;20066;-40
2022/01/13 10:45:08;;;;;;;18.15;8.93;;;;;;;17.50;44.56;103987.22;5018725;28;20041;-40
2022/01/13 10:47:34;;;;;;;19.55;9.30;;;;;;;17.49;44.55;103974.69;5022622;28;20022;-43
2022/01/13 10:50:02;;;;;;;23.75;10.80;;;;;;;17.46;44.86;103970.38;5005492;28;20034;-42
2022/01/13 10:52:28;;;;;;;29.67;13.35;;;;;;;17.50;44.79;103965.69;5023422;28;20069;-41
2022/01/13 10:55:07;;;;;;;24.58;10.73;;;;;;;17.43;45.04;103954.41;5022575;28;20030;-42
2022/01/13 10:57:33;;;;;;;21.48;10.75;;;;;;;17.51;45.03;103967.44;5018233;28;20022;-41
2022/01/13 10:59:59;;;;;;;20.83;10.68;;;;;;;17.53;45.24;103970.88;5023113;28;20026;-44
2022/01/13 11:02:25;;;;;;;16.55;9.65;;;;;;;17.55;45.14;103970.81;5019393;28;20164;-40
2022/01/13 11:04:51;;;;;;;19.88;9.95;;;;;;;17.57;45.33;103968.91;5033797;28;20037;-39
2022/01/13 11:07:24;;;;;;;20.08;9.82;;;;;;;17.58;45.34;103968.81;5038043;28;20049;-45
2022/01/13 11:10:00;;;;;;;16.90;9.18;;;;;;;17.53;44.89;103965.50;5015906;28;20065;-55
2022/01/13 11:12:54;;;;;;;18.67;9.32;;;;;;;17.62;45.20;103977.56;5013159;28;20064;-49
2022/01/13 11:15:21;;;;;;;19.60;8.93;;;;;;;17.63;45.18;103972.13;5009072;28;20046;-43
2022/01/13 11:17:46;;;;;;;15.05;8.68;;;;;;;17.65;45.15;103962.13;5034943;28;20065;-52
2022/01/13 11:20:17;;;;;;;19.42;8.82;;;;;;;17.69;45.02;103965.53;5018358;28;20049;-54
2022/01/13 11:22:44;;;;;;;17.52;8.57;;;;;;;17.69;44.89;103958.31;5014748;28;20022;-45
2022/01/13 11:25:15;;;;;;;17.67;9.35;;;;;;;17.73;44.90;103951.81;5014034;28;20036;-44
2022/01/13 11:27:42;;;;;;;16.42;8.15;;;;;;;17.76;44.63;103953.50;5014391;28;20053;-48
2022/01/13 11:30:11;;;;;;;15.18;9.65;;;;;;;17.73;44.65;103945.56;5031773;28;20041;-43
2022/01/13 11:32:39;;;;;;;13.27;7.22;;;;;;;17.78;44.51;103954.28;5021570;28;20021;-46
2022/01/13 11:35:05;;;;;;;12.30;7.10;;;;;;;17.78;44.37;103951.59;5012923;28;20045;-47
2022/01/13 11:37:31;;;;;;;13.52;6.88;;;;;;;17.76;44.24;103939.19;5017538;28;20029;-46
2022/01/13 11:39:57;;;;;;;12.50;6.75;;;;;;;17.65;44.35;103926.28;5012598;28;20054;-43
2022/01/13 11:42:23;;;;;;;10.77;7.07;;;;;;;17.79;43.85;103945.22;5013327;28;20051;-48
2022/01/13 11:45:09;;;;;;;11.65;7.40;;;;;;;17.81;43.97;103939.78;5011726;28;20050;-46
2022/01/13 11:47:34;;;;;;;12.23;6.90;;;;;;;17.80;44.02;103941.63;5010523;28;20058;-47
2022/01/13 11:50:09;;;;;;;13.02;7.57;;;;;;;17.81;43.91;103937.97;5018275;28;20033;-45
2022/01/13 11:52:44;;;;;;;10.90;6.50;;;;;;;17.81;43.87;103931.72;5020123;28;20457;-47
2022/01/13 11:55:41;;;;;;;9.52;5.93;;;;;;;17.84;43.81;103936.91;5018682;28;20085;-47
2022/01/13 11:58:18;;;;;;;11.82;6.47;;;;;;;17.86;43.84;103933.19;5016453;28;20036;-45
2022/01/13 12:00:47;;;;;;;12.20;7.07;;;;;;;17.86;43.68;103927.78;5015900;28;20099;-43
2022/01/13 12:03:25;;;;;;;9.50;5.30;;;;;;;17.88;43.92;103922.31;5015386;28;20054;-45
2022/01/13 12:05:51;;;;;;;11.02;6.43;;;;;;;17.87;43.92;103918.75;5015135;28;20486;-46
2022/01/13 12:08:45;;;;;;;11.07;6.15;;;;;;;17.90;43.70;103923.09;5018066;28;20101;-46
2022/01/13 12:11:42;;;;;;;10.35;6.28;;;;;;;17.91;43.78;103923.00;5017342;28;20086;-47
2022/01/13 12:14:41;;;;;;;10.07;6.00;;;;;;;17.92;43.59;103918.47;5015436;28;20527;-42
2022/01/13 12:17:23;;;;;;;6.78;4.93;;;;;;;17.93;43.76;103907.66;4996778;28;20045;-40
2022/01/13 12:19:50;;;;;;;9.60;5.30;;;;;;;17.96;43.81;103901.19;5019226;28;20029;-46
2022/01/13 12:22:43;;;;;;;8.23;4.95;;;;;;;17.98;43.96;103902.84;5013254;28;20041;-44
2022/01/13 12:25:14;;;;;;;8.85;5.05;;;;;;;17.98;43.98;103891.22;5014039;28;20034;-43
2022/01/13 12:27:40;;;;;;;8.18;5.85;;;;;;;17.98;44.34;103888.53;5019506;28;20033;-44
2022/01/13 12:30:25;;;;;;;8.95;5.40;;;;;;;18.00;44.59;103889.28;5015289;28;20033;-47
2022/01/13 12:32:58;;;;;;;8.93;6.10;;;;;;;18.03;44.57;103874.78;5025315;28;20040;-54
2022/01/13 12:35:38;;;;;;;8.25;5.05;;;;;;;18.10;44.59;103873.47;5013064;28;20125;-47
2022/01/13 12:38:12;;;;;;;7.50;5.25;;;;;;;18.12;44.44;103875.09;5021487;28;20037;-45
2022/01/13 12:40:45;;;;;;;8.75;5.35;;;;;;;18.09;44.45;103855.56;5019973;28;20385;-45
2022/01/13 12:46:24;;;;;;;9.82;5.53;;;;;;;18.20;44.24;103853.13;5014366;28;20159;-49
2022/01/13 12:48:52;;;;;;;8.98;4.85;;;;;;;18.21;44.10;103861.09;5017595;28;20034;-44
2022/01/13 12:51:19;;;;;;;8.27;4.70;;;;;;;18.18;43.97;103850.53;5021296;28;20030;-45
2022/01/13 12:53:46;;;;;;;7.82;5.53;;;;;;;18.23;43.94;103861.00;5012363;28;20117;-50
2022/01/13 12:56:13;;;;;;;8.95;5.35;;;;;;;18.22;43.99;103857.47;5010337;28;20098;-44
2022/01/13 12:58:42;;;;;;;8.02;4.63;;;;;;;18.26;44.09;103854.56;5015928;28;20060;-47
2022/01/13 13:01:13;;;;;;;8.73;4.75;;;;;;;18.26;43.97;103847.34;5034821;28;20125;-49
2022/01/13 13:03:39;;;;;;;8.00;4.93;;;;;;;18.23;43.97;103843.03;5012464;28;20022;-51
2022/01/13 13:06:12;;;;;;;6.95;4.75;;;;;;;18.28;44.16;103833.81;5011420;28;20037;-45
2022/01/13 13:08:42;;;;;;;7.35;4.85;;;;;;;18.23;43.80;103828.69;5000966;28;20054;-46